createdAt,value
2022-12-17T00:04:14.781Z,24.71
2022-12-17T00:09:21.921Z,24.59
2022-12-17T00:14:29.131Z,24.43
2022-12-17T00:19:36.346Z,24.26
2022-12-17T00:24:43.682Z,24.05
2022-12-17T00:29:50.774Z,23.96
2022-12-17T00:34:57.926Z,23.81
2022-12-17T00:40:05.144Z,23.66
2022-12-17T00:45:12.369Z,23.52
2022-12-17T00:50:19.596Z,23.35
2022-12-17T00:55:26.810Z,23.19
2022-12-17T01:00:34.083Z,23.04
2022-12-17T01:05:41.268Z,22.90
2022-12-17T01:10:48.478Z,22.77
2022-12-17T01:15:56.647Z,22.64
2022-12-17T01:21:02.860Z,22.52
2022-12-17T01:26:10.110Z,22.41
2022-12-17T01:31:17.586Z,22.30
2022-12-17T01:36:24.654Z,22.19
2022-12-17T01:41:31.903Z,22.08
2022-12-17T01:46:39.078Z,21.99
2022-12-17T01:51:46.321Z,21.89
2022-12-17T01:56:53.632Z,21.78
2022-12-17T02:02:01.058Z,21.69
2022-12-17T02:07:08.078Z,21.59
2022-12-17T02:12:15.263Z,21.49
2022-12-17T02:17:22.431Z,21.36
2022-12-17T02:22:29.650Z,21.28
2022-12-17T02:27:36.862Z,21.18
2022-12-17T02:32:44.324Z,21.06
2022-12-17T02:37:51.562Z,20.97
2022-12-17T02:42:58.875Z,20.87
2022-12-17T02:48:05.910Z,20.82
2022-12-17T02:53:13.201Z,20.76
2022-12-17T02:58:20.400Z,20.73
2022-12-17T03:03:27.741Z,20.59
2022-12-17T03:08:34.765Z,20.47
2022-12-17T03:13:42.017Z,20.45
2022-12-17T03:18:49.177Z,20.39
2022-12-17T03:23:56.461Z,20.36
2022-12-17T03:29:03.657Z,20.28
2022-12-17T03:34:10.783Z,20.25
2022-12-17T03:39:17.981Z,20.16
2022-12-17T03:44:25.235Z,20.13
2022-12-17T03:49:32.394Z,20.10
2022-12-17T03:54:39.603Z,19.94
2022-12-17T03:59:46.835Z,19.86
2022-12-17T04:04:54.019Z,19.81
2022-12-17T04:10:01.240Z,19.70
2022-12-17T04:15:08.441Z,19.65
2022-12-17T04:20:15.624Z,19.53
2022-12-17T04:25:22.833Z,19.46
2022-12-17T04:30:30.057Z,19.41
2022-12-17T04:35:37.241Z,19.39
2022-12-17T04:40:44.426Z,19.47
2022-12-17T04:45:51.769Z,19.56
2022-12-17T04:50:58.862Z,19.60
2022-12-17T04:56:06.019Z,19.60
2022-12-17T05:01:13.445Z,19.58
2022-12-17T05:06:20.471Z,19.54
2022-12-17T05:11:27.694Z,19.49
2022-12-17T05:16:34.876Z,19.44
2022-12-17T05:21:42.098Z,19.37
2022-12-17T05:26:49.298Z,19.34
2022-12-17T05:31:56.567Z,19.29
2022-12-17T05:37:03.724Z,19.28
2022-12-17T05:42:10.912Z,19.25
2022-12-17T05:47:18.144Z,19.20
2022-12-17T05:52:25.325Z,19.14
2022-12-17T05:57:32.510Z,19.09
2022-12-17T06:02:39.886Z,19.03
2022-12-17T06:07:46.919Z,18.99
2022-12-17T06:12:54.137Z,18.97
2022-12-17T06:18:01.380Z,19.02
2022-12-17T06:23:08.546Z,19.05
2022-12-17T06:28:15.767Z,19.06
2022-12-17T06:33:22.980Z,19.09
2022-12-17T06:38:30.178Z,19.25
2022-12-17T06:43:37.658Z,19.44
2022-12-17T06:48:44.596Z,19.62
2022-12-17T06:53:51.758Z,19.76
2022-12-17T06:58:58.965Z,19.89
2022-12-17T07:04:06.213Z,20.05
2022-12-17T07:09:13.383Z,20.20
2022-12-17T07:14:20.580Z,20.35
2022-12-17T07:19:27.931Z,20.49
2022-12-17T07:24:34.971Z,20.63
2022-12-17T07:29:42.202Z,20.76
2022-12-17T07:34:49.378Z,20.90
2022-12-17T07:39:56.597Z,21.00
2022-12-17T07:45:03.805Z,21.10
2022-12-17T07:50:11.055Z,21.20
2022-12-17T07:55:18.559Z,21.29
2022-12-17T08:00:25.507Z,21.39
2022-12-17T08:05:32.650Z,21.48
2022-12-17T08:10:39.861Z,21.57
2022-12-17T08:15:47.056Z,21.65
2022-12-17T08:20:54.259Z,21.73
2022-12-17T08:26:01.450Z,21.82
2022-12-17T08:31:08.732Z,21.91
2022-12-17T08:36:15.845Z,21.94
2022-12-17T08:41:23.061Z,21.95
2022-12-17T08:46:30.309Z,21.98
2022-12-17T08:51:37.528Z,22.02
2022-12-17T08:56:44.658Z,22.09
2022-12-17T09:01:52.011Z,22.16
2022-12-17T09:06:59.077Z,22.19
2022-12-17T09:12:06.234Z,22.23
2022-12-17T09:17:13.488Z,22.30
2022-12-17T09:22:20.749Z,22.34
2022-12-17T09:27:28.009Z,22.39
2022-12-17T09:32:35.195Z,22.45
2022-12-17T09:37:42.463Z,22.48
2022-12-17T09:42:52.495Z,22.53
2022-12-17T09:47:56.852Z,22.57
2022-12-17T09:53:04.063Z,22.60
2022-12-17T09:58:11.260Z,22.61
2022-12-17T10:03:18.513Z,22.66
2022-12-17T10:08:25.735Z,22.68
2022-12-17T10:13:33.042Z,22.71
2022-12-17T10:18:40.116Z,22.76
2022-12-17T10:23:47.323Z,22.80
2022-12-17T10:28:54.537Z,22.77
2022-12-17T10:34:01.768Z,22.80
2022-12-17T10:39:09.012Z,22.84
2022-12-17T10:44:16.234Z,22.90
2022-12-17T10:49:23.386Z,22.93
2022-12-17T10:54:30.567Z,22.90
2022-12-17T10:59:37.697Z,22.90
2022-12-17T11:04:44.872Z,22.89
2022-12-17T11:09:52.124Z,22.89
2022-12-17T11:14:59.311Z,22.87
2022-12-17T11:20:06.534Z,22.80
2022-12-17T11:25:13.756Z,22.79
2022-12-17T11:30:23.159Z,22.72
2022-12-17T11:35:28.125Z,22.73
2022-12-17T11:40:35.496Z,22.62
2022-12-17T11:45:42.530Z,22.69
2022-12-17T11:50:49.737Z,22.90
2022-12-17T11:55:56.950Z,23.02
2022-12-17T12:01:04.118Z,23.06
2022-12-17T12:06:11.318Z,23.06
2022-12-17T12:11:18.608Z,23.10
2022-12-17T12:16:25.977Z,23.13
2022-12-17T12:21:33.069Z,23.11
2022-12-17T12:26:40.295Z,23.10
2022-12-17T12:31:47.618Z,23.23
2022-12-17T12:36:54.739Z,23.26
2022-12-17T12:42:01.922Z,23.35
2022-12-17T12:47:09.116Z,23.30
2022-12-17T12:52:16.355Z,23.26
2022-12-17T12:57:23.611Z,23.22
2022-12-17T13:02:30.969Z,23.21
2022-12-17T13:07:38.025Z,23.10
2022-12-17T13:12:45.259Z,23.14
2022-12-17T13:17:52.435Z,23.16
2022-12-17T13:22:59.647Z,23.26
2022-12-17T13:28:06.912Z,23.35
2022-12-17T13:33:14.056Z,23.38
2022-12-17T13:38:21.288Z,23.44
2022-12-17T13:43:28.467Z,23.43
2022-12-17T13:48:36.079Z,23.42
2022-12-17T13:53:42.867Z,23.37
2022-12-17T13:58:51.242Z,23.32
2022-12-17T14:04:06.312Z,23.39
2022-12-17T14:09:04.562Z,23.41
2022-12-17T14:14:11.840Z,23.42
2022-12-17T14:19:18.994Z,23.44
2022-12-17T14:24:26.194Z,23.36
2022-12-17T14:29:33.437Z,23.35
2022-12-17T14:34:40.620Z,23.48
2022-12-17T14:39:47.827Z,23.58
2022-12-17T14:44:55.043Z,23.64
2022-12-17T14:50:02.331Z,23.67
2022-12-17T14:55:09.549Z,23.67
2022-12-17T15:00:16.818Z,23.63
2022-12-17T15:05:23.947Z,23.57
2022-12-17T15:10:31.172Z,23.54
2022-12-17T15:15:38.379Z,23.52
2022-12-17T15:20:45.554Z,23.56
2022-12-17T15:25:52.972Z,23.60
2022-12-17T15:31:00.421Z,23.66
2022-12-17T15:36:08.550Z,23.67
2022-12-17T15:41:16.007Z,23.69
2022-12-17T15:46:23.701Z,23.72
2022-12-17T15:51:31.232Z,23.75
2022-12-17T15:56:38.551Z,23.71
2022-12-17T16:01:45.880Z,23.65
2022-12-17T16:06:53.184Z,23.65
2022-12-17T16:12:00.766Z,23.66
2022-12-17T16:17:08.518Z,23.68
2022-12-17T16:22:15.936Z,23.70
2022-12-17T16:27:23.194Z,23.74
2022-12-17T16:32:36.142Z,23.75
2022-12-17T16:37:37.635Z,23.78
2022-12-17T16:42:44.806Z,23.79
2022-12-17T16:47:52.138Z,23.80
2022-12-17T16:52:59.530Z,23.80
2022-12-17T16:58:07.149Z,23.82
2022-12-17T17:03:15.027Z,23.84
2022-12-17T17:08:22.092Z,23.86
2022-12-17T17:13:29.266Z,23.87
2022-12-17T17:18:36.513Z,23.85
2022-12-17T17:23:43.775Z,23.88
2022-12-17T17:28:50.990Z,23.89
2022-12-17T17:33:58.236Z,23.90
2022-12-17T17:39:05.363Z,23.91
2022-12-17T17:44:12.601Z,23.91
2022-12-17T17:49:19.792Z,23.87
2022-12-17T17:54:27.033Z,23.86
2022-12-17T17:59:34.641Z,24.04
2022-12-17T18:04:41.484Z,24.06
2022-12-17T18:09:48.669Z,23.87
2022-12-17T18:15:14.879Z,23.80
2022-12-17T18:20:03.213Z,23.69
2022-12-17T18:25:10.353Z,23.69
2022-12-17T18:30:17.878Z,23.86
2022-12-17T18:35:25.110Z,24.02
2022-12-17T18:40:33.626Z,24.05
2022-12-17T18:45:39.677Z,24.15
2022-12-17T18:50:47.079Z,24.25
2022-12-17T18:55:54.312Z,24.32
2022-12-17T19:01:01.613Z,24.37
2022-12-17T19:06:09.261Z,24.41
2022-12-17T19:11:16.783Z,24.38
2022-12-17T19:16:24.033Z,24.38
2022-12-17T19:21:31.187Z,24.32
2022-12-17T19:26:38.647Z,24.22
2022-12-17T19:31:46.234Z,24.22
2022-12-17T19:36:53.404Z,24.34
2022-12-17T19:42:00.585Z,24.44
2022-12-17T19:47:07.857Z,24.54
2022-12-17T19:52:15.409Z,24.56
2022-12-17T19:57:23.005Z,24.56
2022-12-17T20:02:33.089Z,24.51
2022-12-17T20:07:37.847Z,24.50
2022-12-17T20:12:45.436Z,24.42
2022-12-17T20:17:52.951Z,24.37
2022-12-17T20:23:00.367Z,24.39
2022-12-17T20:28:07.548Z,24.45
2022-12-17T20:33:14.795Z,24.55
2022-12-17T20:38:22.014Z,24.57
2022-12-17T20:43:29.148Z,24.56
2022-12-17T20:48:36.792Z,24.62
2022-12-17T20:53:43.920Z,24.68
2022-12-17T20:58:51.302Z,24.66
2022-12-17T21:03:58.722Z,24.60
2022-12-17T21:09:06.456Z,24.51
2022-12-17T21:14:13.637Z,24.45
2022-12-17T21:19:20.841Z,24.38
2022-12-17T21:24:28.293Z,24.38
2022-12-17T21:29:35.581Z,24.35
2022-12-17T21:34:42.787Z,24.39
2022-12-17T21:39:51.943Z,24.57
2022-12-17T21:44:57.190Z,24.70
2022-12-17T21:50:04.483Z,24.73
2022-12-17T21:55:11.738Z,24.81
2022-12-17T22:00:18.896Z,24.84
2022-12-17T22:05:26.104Z,24.89
2022-12-17T22:10:44.290Z,24.96
2022-12-17T22:15:48.052Z,24.97
2022-12-17T22:20:47.943Z,24.95
2022-12-17T22:25:55.135Z,24.90
2022-12-17T22:31:02.363Z,24.77
2022-12-17T22:37:53.714Z,24.76
2022-12-17T22:44:35.587Z,24.69
2022-12-17T22:46:24.143Z,24.62
2022-12-17T22:51:31.895Z,24.62
2022-12-17T22:56:54.127Z,24.65
2022-12-17T23:01:45.774Z,24.80
2022-12-17T23:06:52.906Z,24.87
2022-12-17T23:12:00.102Z,24.95
2022-12-17T23:17:07.323Z,24.95
2022-12-17T23:22:18.916Z,25.01
2022-12-17T23:27:21.963Z,25.00
2022-12-17T23:32:29.192Z,25.10
2022-12-17T23:37:39.752Z,25.08
2022-12-17T23:42:43.635Z,25.11
2022-12-17T23:47:50.829Z,25.07
2022-12-17T23:52:58.013Z,25.10
2022-12-17T23:58:05.228Z,25.25
